Time;durP1;ratioP1;P1;durP2;ratioP2;P2;SDS_P1;SDS_P2;PMS_P1;PMS_P2;Temp;Humidity;BMP_temperature;BMP_pressure;BME280_temperature;BME280_humidity;BME280_pressure;Samples;Min_cycle;Max_cycle;Signal;HPM_P1;HPM_P2
2022/05/08 00:01:22;;;;;;;14.80;4.13;;;6.70;99.90;;;;;;5117183;27;20042;-82
2022/05/08 00:03:48;;;;;;;22.80;4.75;;;6.70;99.90;;;;;;5121832;27;20754;-84
2022/05/08 00:06:13;;;;;;;21.27;5.07;;;6.70;99.90;;;;;;5111858;28;20050;-83
2022/05/08 00:08:39;;;;;;;31.65;5.78;;;6.60;99.90;;;;;;5165158;27;20138;-83
2022/05/08 00:11:05;;;;;;;24.73;5.57;;;6.70;99.90;;;;;;5129068;27;20046;-84
2022/05/08 00:13:31;;;;;;;26.58;5.65;;;6.50;99.90;;;;;;5147492;27;20067;-83
2022/05/08 00:15:58;;;;;;;20.02;4.40;;;6.50;99.90;;;;;;5123568;27;20118;-83
2022/05/08 00:18:24;;;;;;;19.67;5.20;;;6.50;99.90;;;;;;5099293;28;20054;-86
2022/05/08 00:20:49;;;;;;;24.73;4.97;;;6.40;99.90;;;;;;5127920;27;20054;-84
2022/05/08 00:23:15;;;;;;;20.98;4.80;;;6.30;99.90;;;;;;5113888;27;20050;-82
2022/05/08 00:25:41;;;;;;;26.50;5.68;;;6.30;99.90;;;;;;5103945;27;20038;-82
2022/05/08 00:28:07;;;;;;;21.17;4.68;;;6.30;99.90;;;;;;5122910;27;20131;-83
2022/05/08 00:30:32;;;;;;;22.67;5.13;;;6.50;99.90;;;;;;5126270;27;20050;-83
2022/05/08 00:32:59;;;;;;;24.30;5.22;;;6.20;99.90;;;;;;5133570;27;20050;-82
2022/05/08 00:35:26;;;;;;;27.08;5.47;;;6.20;99.90;;;;;;5133506;27;20054;-83
2022/05/08 00:37:51;;;;;;;27.08;4.97;;;6.20;99.90;;;;;;5108586;27;20050;-83
2022/05/08 00:40:17;;;;;;;19.23;4.13;;;6.20;99.90;;;;;;5129613;28;20039;-83
2022/05/08 00:42:43;;;;;;;26.75;5.55;;;6.10;99.90;;;;;;5111989;28;20139;-83
2022/05/08 00:45:10;;;;;;;23.63;4.97;;;6.10;99.90;;;;;;5146650;27;20043;-84
2022/05/08 00:47:36;;;;;;;24.90;5.20;;;6.10;99.90;;;;;;5116201;27;20118;-83
2022/05/08 00:50:02;;;;;;;24.48;5.35;;;6.10;99.90;;;;;;5121923;27;20708;-86
2022/05/08 00:52:29;;;;;;;20.90;5.40;;;6.10;99.90;;;;;;5129938;27;20051;-84
2022/05/08 00:54:55;;;;;;;26.40;5.57;;;6.00;99.90;;;;;;5115672;27;20051;-83
2022/05/08 00:57:21;;;;;;;24.30;5.45;;;6.00;99.90;;;;;;5112058;27;20047;-82
2022/05/08 00:59:47;;;;;;;25.73;5.35;;;5.90;99.90;;;;;;5118795;27;20118;-84
2022/05/08 01:02:12;;;;;;;30.55;5.22;;;6.00;99.90;;;;;;5140694;27;20046;-83
2022/05/08 01:04:38;;;;;;;35.42;5.97;;;5.90;99.90;;;;;;5117428;27;20100;-83
2022/05/08 01:07:04;;;;;;;17.95;5.43;;;5.90;99.90;;;;;;5116368;27;20047;-85
2022/05/08 01:09:30;;;;;;;20.80;5.05;;;5.90;99.90;;;;;;5116642;27;20089;-82
2022/05/08 01:11:56;;;;;;;23.33;4.78;;;5.90;99.90;;;;;;5141193;27;20070;-83
2022/05/08 01:14:22;;;;;;;21.48;5.30;;;5.80;99.90;;;;;;5123567;27;20420;-83
2022/05/08 01:16:47;;;;;;;18.30;5.07;;;5.80;99.90;;;;;;5115736;27;20043;-84
2022/05/08 01:19:13;;;;;;;21.08;5.20;;;5.90;99.90;;;;;;5114014;27;20039;-84
2022/05/08 01:21:41;;;;;;;19.17;5.50;;;5.70;99.90;;;;;;5128925;27;20445;-84
2022/05/08 01:24:08;;;;;;;19.30;4.75;;;5.80;99.90;;;;;;5102593;27;20168;-85
2022/05/08 01:26:33;;;;;;;24.10;5.15;;;5.70;99.90;;;;;;5113679;27;20401;-85
2022/05/08 01:29:01;;;;;;;30.15;5.25;;;5.70;99.90;;;;;;5102606;27;20038;-84
2022/05/08 01:31:26;;;;;;;19.38;5.50;;;5.70;99.90;;;;;;5136374;27;20117;-84
2022/05/08 01:33:52;;;;;;;24.90;5.22;;;5.50;99.90;;;;;;5099539;27;20151;-83
2022/05/08 01:36:18;;;;;;;14.93;4.95;;;5.60;99.90;;;;;;5111634;28;20039;-83
2022/05/08 01:38:44;;;;;;;17.75;3.85;;;5.50;99.90;;;;;;5108006;27;20086;-83
2022/05/08 01:41:09;;;;;;;13.45;3.80;;;5.50;99.90;;;;;;5133496;27;20108;-86
2022/05/08 01:43:36;;;;;;;12.60;3.53;;;5.60;99.90;;;;;;5120203;27;20038;-88
2022/05/08 01:46:03;;;;;;;13.98;4.22;;;5.40;99.90;;;;;;5088319;28;20131;-85
2022/05/08 01:48:30;;;;;;;11.85;3.67;;;5.40;99.90;;;;;;5140497;27;20043;-84
2022/05/08 01:50:57;;;;;;;17.25;4.72;;;5.30;99.90;;;;;;5125680;27;20045;-84
2022/05/08 01:53:25;;;;;;;15.20;4.80;;;5.30;99.90;;;;;;5132415;27;20047;-85
2022/05/08 01:55:54;;;;;;;17.83;4.53;;;5.30;99.90;;;;;;5130548;27;20054;-83
2022/05/08 01:58:25;;;;;;;11.95;3.67;;;5.20;99.90;;;;;;5111707;27;20047;-83
2022/05/08 02:00:52;;;;;;;19.95;4.40;;;5.20;99.90;;;;;;5116063;27;20122;-83
2022/05/08 02:03:19;;;;;;;20.33;4.20;;;5.20;99.90;;;;;;5159739;27;20051;-83
2022/05/08 02:05:45;;;;;;;12.95;4.32;;;5.10;99.90;;;;;;5135997;27;20407;-83
2022/05/08 02:08:11;;;;;;;14.35;4.50;;;5.10;99.90;;;;;;5132380;27;20052;-83
2022/05/08 02:10:37;;;;;;;16.67;5.30;;;5.30;99.90;;;;;;5103919;27;20056;-86
2022/05/08 02:13:04;;;;;;;20.55;5.38;;;4.90;99.90;;;;;;5136021;27;20043;-84
2022/05/08 02:15:30;;;;;;;21.13;5.00;;;4.80;99.90;;;;;;5117438;27;20082;-82
2022/05/08 02:18:02;;;;;;;19.55;4.82;;;4.70;99.90;;;;;;5132994;27;20093;-82
2022/05/08 02:20:28;;;;;;;23.40;5.00;;;4.70;99.90;;;;;;5132944;27;20047;-82
2022/05/08 02:22:55;;;;;;;22.13;5.15;;;4.60;99.90;;;;;;5133513;27;20102;-82
2022/05/08 02:25:21;;;;;;;24.00;6.15;;;4.60;99.90;;;;;;5113200;27;20068;-82
2022/05/08 02:27:49;;;;;;;22.83;5.53;;;4.60;99.90;;;;;;5145344;27;20138;-82
2022/05/08 02:30:16;;;;;;;22.23;5.68;;;4.90;99.90;;;;;;5132413;27;20039;-82
2022/05/08 02:32:43;;;;;;;21.50;6.65;;;4.50;99.90;;;;;;5116314;27;20327;-82
2022/05/08 02:35:12;;;;;;;20.63;4.90;;;4.50;99.90;;;;;;5116246;27;20042;-83
2022/05/08 02:37:40;;;;;;;21.48;5.90;;;4.50;99.90;;;;;;5131169;27;20039;-81
2022/05/08 02:40:11;;;;;;;18.95;6.05;;;4.70;99.90;;;;;;5133992;27;20081;-82
2022/05/08 02:42:38;;;;;;;20.10;5.07;;;4.30;99.90;;;;;;5131562;27;20062;-83
2022/05/08 02:45:05;;;;;;;16.88;4.57;;;4.30;99.90;;;;;;5130939;27;20049;-85
2022/05/08 02:47:34;;;;;;;13.18;4.55;;;4.20;99.90;;;;;;5098075;27;20130;-81
2022/05/08 02:49:59;;;;;;;14.90;5.13;;;4.10;99.90;;;;;;5117591;27;20047;-82
2022/05/08 02:52:25;;;;;;;16.75;5.47;;;4.10;99.90;;;;;;5117068;27;20475;-83
2022/05/08 02:54:51;;;;;;;15.60;4.95;;;4.10;99.90;;;;;;5118331;27;20395;-83
2022/05/08 03:00:08;;;;;;;16.92;5.80;;;4.10;99.90;;;;;;5143349;27;20095;-83
2022/05/08 03:02:34;;;;;;;22.17;5.65;;;4.20;99.90;;;;;;5119638;27;20043;-83
2022/05/08 03:05:01;;;;;;;19.83;5.75;;;4.10;99.90;;;;;;5108196;28;20047;-82
2022/05/08 03:07:27;;;;;;;20.67;4.90;;;4.10;99.90;;;;;;5127418;27;20051;-83
2022/05/08 03:09:53;;;;;;;21.25;4.93;;;4.20;99.90;;;;;;5131606;27;20400;-83
2022/05/08 03:12:19;;;;;;;22.67;5.35;;;4.00;99.90;;;;;;5097868;27;20047;-81
2022/05/08 03:14:45;;;;;;;24.13;5.07;;;4.30;99.90;;;;;;5115650;27;20057;-86
2022/05/08 03:17:10;;;;;;;26.30;5.93;;;3.90;99.90;;;;;;5121051;27;20059;-83
2022/05/08 03:19:36;;;;;;;20.95;5.28;;;3.90;99.90;;;;;;5099797;27;20068;-84
2022/05/08 03:22:02;;;;;;;16.83;5.00;;;3.80;99.90;;;;;;5114329;27;20042;-82
2022/05/08 03:24:29;;;;;;;15.20;4.47;;;3.80;99.90;;;;;;5116556;27;20353;-83
2022/05/08 03:26:56;;;;;;;22.95;4.97;;;3.80;99.90;;;;;;5114986;27;20046;-83
2022/05/08 03:29:26;;;;;;;16.48;4.72;;;3.90;99.90;;;;;;5132614;27;20047;-83
2022/05/08 03:31:53;;;;;;;21.00;4.95;;;3.70;99.90;;;;;;5132168;27;20045;-82
2022/05/08 03:34:19;;;;;;;16.25;4.93;;;3.60;99.90;;;;;;5142420;27;20075;-82
2022/05/08 03:36:45;;;;;;;17.65;5.38;;;3.70;99.90;;;;;;5118055;27;20062;-86
2022/05/08 03:39:13;;;;;;;17.92;5.10;;;3.60;99.90;;;;;;5115897;27;20050;-86
2022/05/08 03:41:39;;;;;;;19.38;5.28;;;3.60;99.90;;;;;;5077838;28;20044;-83
2022/05/08 03:44:05;;;;;;;16.70;5.18;;;3.70;99.90;;;;;;5123287;27;20034;-83
2022/05/08 03:46:31;;;;;;;19.67;5.38;;;3.60;99.90;;;;;;5130778;27;20034;-83
2022/05/08 03:48:57;;;;;;;19.75;5.07;;;3.70;99.90;;;;;;5151720;27;20119;-82
2022/05/08 03:51:23;;;;;;;18.27;5.30;;;3.60;99.90;;;;;;5150597;27;20048;-83
2022/05/08 03:53:48;;;;;;;14.02;4.93;;;3.50;99.90;;;;;;5098660;27;20787;-83
2022/05/08 03:56:15;;;;;;;18.50;5.20;;;3.50;99.90;;;;;;5110252;28;20051;-83
2022/05/08 03:58:41;;;;;;;17.30;4.90;;;3.50;99.90;;;;;;5145601;27;20075;-83
2022/05/08 04:01:07;;;;;;;19.15;4.82;;;3.50;99.90;;;;;;5144551;27;20539;-83
2022/05/08 04:03:33;;;;;;;14.15;6.00;;;3.40;99.90;;;;;;5136868;27;20046;-83
2022/05/08 04:05:59;;;;;;;14.70;4.30;;;3.40;99.90;;;;;;5113304;27;20039;-82
2022/05/08 04:08:24;;;;;;;19.13;5.78;;;3.40;99.90;;;;;;5118867;27;20086;-82
2022/05/08 04:10:50;;;;;;;20.92;5.38;;;3.50;99.90;;;;;;5114904;28;20044;-83
2022/05/08 04:13:16;;;;;;;25.67;5.85;;;3.40;99.90;;;;;;5107849;27;20053;-83
2022/05/08 04:18:26;;;;;;;15.07;5.25;;;3.50;99.90;;;;;;5106999;27;20125;-83
2022/05/08 04:20:51;;;;;;;19.77;5.18;;;3.50;99.90;;;;;;5077362;28;20122;-83
2022/05/08 04:26:01;;;;;;;21.40;5.35;;;3.60;99.90;;;;;;5134660;27;20047;-83
2022/05/08 04:28:27;;;;;;;17.08;5.20;;;3.90;99.90;;;;;;5115241;27;20044;-81
2022/05/08 04:30:53;;;;;;;17.33;5.30;;;3.70;99.90;;;;;;5129370;27;20054;-83
2022/05/08 04:33:18;;;;;;;19.92;5.60;;;3.70;99.90;;;;;;5121400;27;20130;-81
2022/05/08 04:35:44;;;;;;;16.52;5.95;;;3.70;99.90;;;;;;5138574;27;20541;-82
2022/05/08 04:38:11;;;;;;;21.92;5.82;;;3.70;99.90;;;;;;5142005;27;20077;-82
2022/05/08 04:40:38;;;;;;;19.40;5.55;;;3.80;99.90;;;;;;5103965;27;20046;-82
2022/05/08 04:43:04;;;;;;;18.55;5.97;;;3.90;99.90;;;;;;5132692;27;20506;-84
2022/05/08 04:45:30;;;;;;;20.55;6.00;;;4.00;99.90;;;;;;5138122;27;20045;-83
2022/05/08 04:47:55;;;;;;;18.42;5.70;;;4.10;99.90;;;;;;5134894;27;20045;-82
2022/05/08 04:50:21;;;;;;;27.67;5.65;;;4.20;99.90;;;;;;5118990;27;20042;-83
2022/05/08 04:52:47;;;;;;;19.98;5.60;;;4.30;99.90;;;;;;5138646;27;20046;-82
2022/05/08 04:55:12;;;;;;;22.48;5.63;;;4.60;99.90;;;;;;5155277;27;20142;-82
2022/05/08 04:57:38;;;;;;;20.58;5.38;;;4.60;99.90;;;;;;5135843;27;20391;-82
2022/05/08 05:00:04;;;;;;;23.00;5.80;;;4.70;99.90;;;;;;5114296;27;20043;-82
2022/05/08 05:02:31;;;;;;;20.55;5.20;;;4.80;99.90;;;;;;5146798;27;20532;-83
2022/05/08 05:04:57;;;;;;;17.10;5.35;;;4.90;99.90;;;;;;5130195;27;20039;-82
2022/05/08 05:07:23;;;;;;;13.90;4.93;;;5.00;99.90;;;;;;5125293;27;20058;-81
2022/05/08 05:09:49;;;;;;;13.07;4.60;;;5.10;99.90;;;;;;5117992;27;20074;-84
2022/05/08 05:12:15;;;;;;;17.73;5.15;;;5.40;99.90;;;;;;5135312;27;20470;-81
2022/05/08 05:14:40;;;;;;;14.73;5.22;;;5.20;99.90;;;;;;5146507;27;20046;-82
2022/05/08 05:17:06;;;;;;;20.08;4.57;;;5.30;99.90;;;;;;5119591;27;20039;-82
2022/05/08 05:19:32;;;;;;;17.40;4.65;;;5.40;99.90;;;;;;5103552;28;20085;-83
2022/05/08 05:21:57;;;;;;;15.23;4.70;;;5.50;99.90;;;;;;5083234;27;20043;-83
2022/05/08 05:24:23;;;;;;;19.75;4.38;;;5.80;99.90;;;;;;5116479;27;20055;-82
2022/05/08 05:26:49;;;;;;;15.10;5.40;;;5.60;99.90;;;;;;5114300;27;20046;-83
2022/05/08 05:29:17;;;;;;;11.95;3.95;;;5.80;99.90;;;;;;5130435;27;20093;-83
2022/05/08 05:31:46;;;;;;;17.27;4.20;;;5.80;99.90;;;;;;5119169;27;20404;-83
2022/05/08 05:34:12;;;;;;;12.40;3.90;;;5.90;99.90;;;;;;5080185;27;20051;-84
2022/05/08 05:36:38;;;;;;;6.68;2.95;;;6.00;99.90;;;;;;5115964;27;20043;-84
2022/05/08 05:39:03;;;;;;;17.23;4.20;;;6.20;99.90;;;;;;5082362;27;21210;-83
2022/05/08 05:41:29;;;;;;;16.77;3.38;;;6.30;99.90;;;;;;5087630;28;20135;-81
2022/05/08 05:43:55;;;;;;;14.90;3.45;;;6.50;99.90;;;;;;5128929;27;20039;-85
2022/05/08 05:49:05;;;;;;;12.38;3.45;;;6.70;99.90;;;;;;5123253;27;20050;-82
2022/05/08 05:51:31;;;;;;;13.18;3.00;;;6.80;99.90;;;;;;5089218;27;20557;-83
2022/05/08 05:53:56;;;;;;;11.02;2.80;;;7.10;99.90;;;;;;5082235;28;20047;-85
2022/05/08 05:56:22;;;;;;;15.18;3.97;;;7.10;99.90;;;;;;5112252;27;20035;-81
2022/05/08 05:58:48;;;;;;;11.80;2.55;;;7.30;99.90;;;;;;5115723;27;20051;-82
2022/05/08 06:01:13;;;;;;;10.38;2.85;;;7.60;99.90;;;;;;5115187;27;20790;-82
2022/05/08 06:03:39;;;;;;;9.18;2.60;;;7.80;99.90;;;;;;5095393;28;20047;-81
2022/05/08 06:06:05;;;;;;;14.07;2.42;;;8.10;99.90;;;;;;5149308;27;20118;-82
2022/05/08 06:08:30;;;;;;;10.00;2.05;;;8.40;99.90;;;;;;5133818;27;20059;-81
2022/05/08 06:10:56;;;;;;;11.35;2.80;;;8.80;99.90;;;;;;5117844;27;20043;-85
2022/05/08 06:13:22;;;;;;;8.25;2.15;;;8.90;99.90;;;;;;5107027;27;20135;-82
2022/05/08 06:15:47;;;;;;;7.70;2.03;;;9.30;99.90;;;;;;5120696;27;20053;-82
2022/05/08 06:18:13;;;;;;;11.38;2.38;;;9.50;99.90;;;;;;5107530;27;20050;-84
2022/05/08 06:20:39;;;;;;;9.60;1.90;;;9.70;99.90;;;;;;5105252;27;20121;-82
2022/05/08 06:23:05;;;;;;;8.90;1.60;;;10.00;99.90;;;;;;5117964;27;20046;-83
2022/05/08 06:25:30;;;;;;;11.35;2.45;;;10.20;99.90;;;;;;5096820;27;20481;-81
2022/05/08 06:27:56;;;;;;;10.52;1.77;;;10.40;99.90;;;;;;5113682;27;20051;-82
2022/05/08 06:30:22;;;;;;;14.15;1.92;;;10.80;99.90;;;;;;5129308;27;20040;-81
2022/05/08 06:32:47;;;;;;;8.00;2.28;;;11.30;99.90;;;;;;5110971;27;20079;-81
2022/05/08 06:35:13;;;;;;;11.75;1.85;;;11.60;99.90;;;;;;5118920;27;20043;-83
2022/05/08 06:37:39;;;;;;;6.80;1.98;;;12.00;99.90;;;;;;5125979;27;20074;-83
2022/05/08 06:40:05;;;;;;;8.80;1.98;;;12.20;99.90;;;;;;5118295;27;20044;-83
2022/05/08 06:42:31;;;;;;;9.25;1.73;;;12.30;99.90;;;;;;5112944;27;20055;-84
2022/05/08 06:44:56;;;;;;;8.55;1.70;;;12.40;99.90;;;;;;5086106;27;20068;-81
2022/05/08 06:47:22;;;;;;;7.53;1.63;;;12.40;99.90;;;;;;5100885;27;20628;-81
2022/05/08 06:49:48;;;;;;;8.75;1.42;;;12.20;99.90;;;;;;5112803;27;20079;-84
2022/05/08 06:52:13;;;;;;;10.23;1.60;;;12.00;98.50;;;;;;5111587;27;20050;-84
2022/05/08 06:54:39;;;;;;;6.15;1.35;;;11.80;97.80;;;;;;5126421;27;20078;-82
2022/05/08 06:57:10;;;;;;;7.80;1.80;;;11.50;98.70;;;;;;5112257;27;20308;-83
2022/05/08 07:02:21;;;;;;;9.80;2.00;;;11.40;99.90;;;;;;5098044;27;20082;-83
2022/05/08 07:04:48;;;;;;;8.43;1.67;;;11.50;99.90;;;;;;5109587;27;20078;-82
2022/05/08 07:07:14;;;;;;;10.27;2.10;;;11.50;99.90;;;;;;5085459;27;20051;-83
2022/05/08 07:09:40;;;;;;;13.05;1.80;;;11.50;98.10;;;;;;5097272;27;20059;-84
2022/05/08 07:12:06;;;;;;;9.98;1.95;;;11.50;97.50;;;;;;5086223;27;20050;-85
2022/05/08 07:14:32;;;;;;;10.10;1.50;;;11.60;97.40;;;;;;5109604;27;20045;-82
2022/05/08 07:16:58;;;;;;;6.40;1.70;;;11.70;96.70;;;;;;5108337;27;20047;-82
2022/05/08 07:19:23;;;;;;;7.00;1.67;;;11.90;95.30;;;;;;5126839;27;20674;-79
2022/05/08 07:21:49;;;;;;;9.27;1.70;;;11.90;95.30;;;;;;5112655;27;20083;-81
2022/05/08 07:24:15;;;;;;;10.57;1.73;;;12.00;94.30;;;;;;5091610;27;20077;-81
2022/05/08 07:26:41;;;;;;;10.85;1.85;;;12.00;93.50;;;;;;5079202;27;20183;-80
2022/05/08 07:29:07;;;;;;;10.32;2.10;;;11.90;93.90;;;;;;5124428;27;20042;-83
2022/05/08 07:31:33;;;;;;;9.57;1.50;;;11.80;94.30;;;;;;5138945;27;20502;-82
2022/05/08 07:36:43;;;;;;;12.35;1.83;;;12.10;94.90;;;;;;5098000;27;20476;-81
2022/05/08 07:39:09;;;;;;;9.27;1.75;;;12.30;94.90;;;;;;5143487;27;20060;-83
2022/05/08 07:41:34;;;;;;;10.73;1.73;;;12.50;94.00;;;;;;5098061;27;20103;-81
2022/05/08 07:44:00;;;;;;;8.07;1.70;;;12.50;93.40;;;;;;5090524;27;20103;-81
2022/05/08 07:46:26;;;;;;;10.63;1.75;;;12.40;92.60;;;;;;5082446;27;20537;-84
2022/05/08 07:48:52;;;;;;;7.43;1.80;;;12.40;92.30;;;;;;5119352;27;20100;-82
2022/05/08 07:51:18;;;;;;;9.98;1.83;;;12.40;92.30;;;;;;5093427;27;20051;-82
2022/05/08 07:53:44;;;;;;;9.50;2.35;;;12.50;91.80;;;;;;5112484;27;20123;-81
2022/05/08 07:56:09;;;;;;;15.43;1.98;;;12.70;90.60;;;;;;5112506;27;21503;-84
2022/05/08 07:58:35;;;;;;;9.75;1.60;;;12.80;87.00;;;;;;5109271;27;20046;-82
2022/05/08 08:01:02;;;;;;;10.15;1.77;;;12.80;85.50;;;;;;5094642;27;20146;-84
2022/05/08 08:03:29;;;;;;;6.72;1.80;;;12.80;86.90;;;;;;5115787;27;20108;-82
2022/05/08 08:05:56;;;;;;;11.93;2.15;;;12.80;86.60;;;;;;5095578;27;20042;-80
2022/05/08 08:08:25;;;;;;;10.25;2.33;;;12.70;84.50;;;;;;5085053;28;22068;-85
2022/05/08 08:10:53;;;;;;;10.73;2.50;;;12.60;84.30;;;;;;5081752;28;20055;-82
2022/05/08 08:13:19;;;;;;;9.50;2.00;;;12.40;84.40;;;;;;5095162;28;20043;-80
2022/05/08 08:15:46;;;;;;;10.63;1.90;;;12.40;86.20;;;;;;5064825;28;20043;-84
2022/05/08 08:18:12;;;;;;;15.82;2.20;;;12.40;84.90;;;;;;5093659;28;20039;-85
2022/05/08 08:20:38;;;;;;;16.42;2.08;;;12.30;84.70;;;;;;5078157;28;20224;-81
2022/05/08 08:23:04;;;;;;;10.68;1.92;;;12.20;85.70;;;;;;5057478;28;20335;-84
2022/05/08 08:25:30;;;;;;;10.02;2.17;;;12.30;85.60;;;;;;5090780;28;20643;-82
2022/05/08 08:27:56;;;;;;;10.80;1.88;;;12.40;86.10;;;;;;5079801;28;20043;-81
2022/05/08 08:30:22;;;;;;;13.98;1.83;;;12.60;84.80;;;;;;5100450;28;20083;-82
2022/05/08 08:32:48;;;;;;;12.82;2.58;;;12.80;83.50;;;;;;5062151;28;20074;-81
2022/05/08 08:35:14;;;;;;;9.35;1.80;;;13.20;82.20;;;;;;5098850;28;20059;-81
2022/05/08 08:37:40;;;;;;;12.75;2.22;;;13.20;78.10;;;;;;5104754;28;20039;-83
2022/05/08 08:40:06;;;;;;;8.70;1.73;;;13.20;79.00;;;;;;5068859;28;20048;-82
2022/05/08 08:42:32;;;;;;;7.68;1.77;;;13.80;76.90;;;;;;5115151;27;20047;-81
2022/05/08 08:47:52;;;;;;;7.43;1.65;;;15.50;70.20;;;;;;5116818;27;20052;-81
2022/05/08 08:50:19;;;;;;;8.43;1.70;;;16.40;66.40;;;;;;5118647;27;20047;-82
2022/05/08 08:52:48;;;;;;;8.20;2.00;;;16.70;63.80;;;;;;5084096;28;20531;-82
2022/05/08 08:55:16;;;;;;;9.80;2.08;;;16.70;62.90;;;;;;5101051;28;20044;-85
2022/05/08 08:57:43;;;;;;;9.75;1.80;;;17.20;60.30;;;;;;5088985;28;20104;-80
2022/05/08 09:00:09;;;;;;;11.57;2.13;;;17.80;57.60;;;;;;5111669;28;20043;-81
2022/05/08 09:02:35;;;;;;;9.15;1.77;;;18.30;57.30;;;;;;5083561;28;20054;-81
2022/05/08 09:05:06;;;;;;;9.80;1.90;;;18.20;54.90;;;;;;5098604;28;20044;-79
2022/05/08 09:07:42;;;;;;;8.68;2.05;;;18.30;53.60;;;;;;5074890;28;20047;-84
2022/05/08 09:10:20;;;;;;;8.20;2.00;;;19.10;53.40;;;;;;5104762;27;20051;-81
2022/05/08 09:12:52;;;;;;;10.85;1.98;;;19.60;50.30;;;;;;5110109;27;20047;-80
2022/05/08 09:15:26;;;;;;;7.97;1.95;;;19.70;49.20;;;;;;5107156;27;20046;-81
2022/05/08 09:17:56;;;;;;;8.35;2.00;;;20.20;49.30;;;;;;5077041;27;20051;-80
2022/05/08 09:20:35;;;;;;;12.50;2.28;;;20.60;46.80;;;;;;5093120;27;20048;-81
2022/05/08 09:23:04;;;;;;;8.40;2.00;;;21.10;44.90;;;;;;5108340;27;20052;-83
2022/05/08 09:25:54;;;;;;;9.98;1.90;;;21.30;44.20;;;;;;5138355;27;20096;-82
2022/05/08 09:28:24;;;;;;;8.02;2.15;;;21.60;40.80;;;;;;5120948;27;20068;-80
2022/05/08 09:31:12;;;;;;;9.50;2.05;;;21.50;42.50;;;;;;5122455;27;20043;-81
2022/05/08 09:33:39;;;;;;;7.25;1.90;;;21.80;40.90;;;;;;5077520;27;20074;-81
2022/05/08 09:36:10;;;;;;;6.05;1.60;;;21.40;41.90;;;;;;5093500;27;20070;-82
2022/05/08 09:39:00;;;;;;;5.03;1.98;;;21.20;41.70;;;;;;5125008;27;20931;-80
2022/05/08 09:41:31;;;;;;;6.47;1.65;;;21.70;38.40;;;;;;5085857;27;20055;-82
2022/05/08 09:44:14;;;;;;;8.25;1.85;;;22.40;41.00;;;;;;5137120;27;20556;-81
2022/05/08 09:46:45;;;;;;;7.70;1.80;;;23.00;38.70;;;;;;5129997;27;20499;-81
2022/05/08 09:49:18;;;;;;;12.60;2.20;;;23.20;37.50;;;;;;5131969;27;20036;-80
2022/05/08 09:51:45;;;;;;;10.88;2.00;;;23.30;35.80;;;;;;5115008;27;20092;-80
2022/05/08 09:54:13;;;;;;;7.53;2.00;;;23.40;35.80;;;;;;5114624;27;20039;-81
2022/05/08 09:56:41;;;;;;;14.23;2.15;;;23.70;35.60;;;;;;5132148;27;20086;-81
2022/05/08 09:59:07;;;;;;;9.60;2.25;;;24.20;35.70;;;;;;5097731;27;20150;-82
2022/05/08 10:01:34;;;;;;;9.95;2.20;;;24.40;35.10;;;;;;5113917;27;20061;-83
2022/05/08 10:03:59;;;;;;;8.27;1.73;;;24.60;34.00;;;;;;5131637;27;20051;-80
2022/05/08 10:06:28;;;;;;;5.85;1.88;;;24.70;33.60;;;;;;5130610;27;20042;-80
2022/05/08 10:13:53;;;;;;;7.75;1.80;;;24.80;33.40;;;;;;5113955;27;20059;-80
2022/05/08 10:14:30;;;;;;;9.38;1.90;;;25.30;32.20;;;;;;5130697;27;20407;-81
2022/05/08 10:17:04;;;;;;;5.60;1.80;;;25.40;31.30;;;;;;5113822;27;20047;-80
2022/05/08 10:19:30;;;;;;;9.07;1.98;;;25.40;29.60;;;;;;5130390;27;20097;-80
2022/05/08 10:21:55;;;;;;;10.80;2.03;;;25.10;31.60;;;;;;5131236;27;20461;-80
2022/05/08 10:24:31;;;;;;;4.95;1.75;;;25.20;31.90;;;;;;5113336;27;20511;-80
2022/05/08 10:27:23;;;;;;;7.40;1.85;;;25.30;30.20;;;;;;5093313;28;20134;-80
2022/05/08 10:29:52;;;;;;;11.68;1.77;;;25.70;30.20;;;;;;5093625;28;20085;-80
2022/05/08 10:32:31;;;;;;;7.97;1.85;;;26.00;30.90;;;;;;5110281;28;20051;-82
2022/05/08 10:35:22;;;;;;;12.25;2.60;;;26.00;29.70;;;;;;5110450;28;20058;-80
2022/05/08 10:37:50;;;;;;;6.05;1.73;;;26.20;28.80;;;;;;5093228;28;20079;-81
2022/05/08 10:40:21;;;;;;;8.52;2.00;;;26.20;30.00;;;;;;5086357;27;20131;-83
2022/05/08 10:43:18;;;;;;;8.35;2.10;;;25.70;28.20;;;;;;5088848;27;20059;-81
2022/05/08 10:45:44;;;;;;;;;;;25.70;29.20;;;;;;5138137;27;20035;-81
2022/05/08 10:48:12;;;;;;;6.88;1.70;;;25.40;29.10;;;;;;5096549;27;19929;-81
2022/05/08 10:50:53;;;;;;;17.55;2.25;;;25.60;30.00;;;;;;5103397;27;20052;-82
2022/05/08 10:53:20;;;;;;;6.57;1.75;;;26.00;29.00;;;;;;5121922;27;20500;-84
2022/05/08 10:55:46;;;;;;;8.13;1.80;;;26.20;28.40;;;;;;5072170;28;20046;-84
2022/05/08 10:58:12;;;;;;;10.30;2.33;;;26.20;28.50;;;;;;5078475;28;20130;-82
2022/05/08 11:00:37;;;;;;;6.32;2.55;;;26.50;28.80;;;;;;5076403;27;20043;-80
2022/05/08 11:03:03;;;;;;;9.10;2.47;;;26.70;27.90;;;;;;5102361;28;20043;-81
2022/05/08 11:05:34;;;;;;;8.10;2.05;;;26.80;27.60;;;;;;5101428;27;20054;-80
2022/05/08 11:08:09;;;;;;;6.80;2.00;;;27.20;27.40;;;;;;5102404;27;20413;-83
2022/05/08 11:10:42;;;;;;;11.95;2.40;;;27.30;27.10;;;;;;5124522;27;20090;-81
2022/05/08 11:13:12;;;;;;;11.25;2.30;;;27.20;27.00;;;;;;5088192;28;20081;-81
2022/05/08 11:15:41;;;;;;;8.25;2.05;;;27.40;26.80;;;;;;5092609;28;20139;-82
2022/05/08 11:18:11;;;;;;;12.63;2.35;;;27.60;27.50;;;;;;5098657;27;20043;-82
2022/05/08 11:21:00;;;;;;;9.18;1.65;;;27.70;26.70;;;;;;5105531;27;20078;-81
2022/05/08 11:23:44;;;;;;;8.80;2.05;;;27.90;25.70;;;;;;5097767;27;20136;-81
2022/05/08 11:26:11;;;;;;;7.70;1.92;;;27.90;26.60;;;;;;5095635;27;20488;-81
2022/05/08 11:28:50;;;;;;;13.52;2.33;;;28.00;26.30;;;;;;5081287;28;20059;-81
2022/05/08 11:31:18;;;;;;;10.55;2.30;;;28.10;25.80;;;;;;5097673;28;20051;-81
2022/05/08 11:36:34;;;;;;;8.68;2.13;;;28.50;25.80;;;;;;5133508;27;20570;-81
2022/05/08 11:39:05;;;;;;;9.45;2.30;;;28.80;25.40;;;;;;5088537;28;20048;-83
2022/05/08 11:41:35;;;;;;;6.68;1.70;;;28.90;25.30;;;;;;5135502;27;20075;-81
2022/05/08 11:44:15;;;;;;;5.00;1.85;;;29.10;25.20;;;;;;5112449;27;20048;-80
2022/05/08 11:46:46;;;;;;;7.43;2.03;;;29.00;25.00;;;;;;5104614;27;20039;-81
2022/05/08 11:49:19;;;;;;;7.20;1.63;;;29.20;24.70;;;;;;5098805;28;20056;-82
2022/05/08 11:51:49;;;;;;;6.63;2.25;;;29.50;24.20;;;;;;5102890;28;20396;-85
2022/05/08 11:54:23;;;;;;;9.45;1.92;;;29.70;24.30;;;;;;5108122;28;20130;-85
2022/05/08 11:56:54;;;;;;;9.55;2.47;;;29.60;24.10;;;;;;5121008;27;20046;-83
2022/05/08 11:59:22;;;;;;;10.40;2.13;;;29.60;23.90;;;;;;5104721;28;20082;-84
2022/05/08 12:01:53;;;;;;;14.07;6.38;;;29.70;23.80;;;;;;5078657;28;20047;-85
2022/05/08 12:04:29;;;;;;;10.30;2.08;;;29.60;23.30;;;;;;5104843;28;20126;-82
2022/05/08 12:07:07;;;;;;;8.20;2.00;;;29.60;23.40;;;;;;5104553;28;20042;-84
2022/05/08 12:09:42;;;;;;;5.93;1.63;;;29.70;23.80;;;;;;5095571;27;20051;-85
2022/05/08 12:12:36;;;;;;;9.18;2.17;;;29.30;23.30;;;;;;5122831;28;20051;-86
2022/05/08 12:15:02;;;;;;;8.20;1.55;;;29.10;22.80;;;;;;5106333;28;20044;-83
2022/05/08 12:17:41;;;;;;;6.45;1.50;;;29.30;23.60;;;;;;5094975;28;20071;-88
2022/05/08 12:20:17;;;;;;;10.90;2.85;;;29.50;23.10;;;;;;5129249;28;20114;-86
2022/05/08 12:22:46;;;;;;;7.35;2.10;;;29.40;22.40;;;;;;5108284;28;20071;-83
2022/05/08 12:25:20;;;;;;;6.97;2.00;;;29.30;22.40;;;;;;5093701;28;20051;-83
2022/05/08 12:27:45;;;;;;;9.85;2.20;;;29.40;22.50;;;;;;5094049;28;20040;-82
2022/05/08 12:30:11;;;;;;;9.57;1.80;;;29.20;22.70;;;;;;5105400;28;20048;-84
2022/05/08 12:32:37;;;;;;;6.75;1.60;;;29.40;22.70;;;;;;5087752;28;20401;-83
2022/05/08 12:35:06;;;;;;;8.68;1.77;;;28.80;22.90;;;;;;5105572;28;20135;-81
2022/05/08 12:37:32;;;;;;;7.07;1.58;;;28.40;22.80;;;;;;5105738;28;20059;-82
2022/05/08 12:39:58;;;;;;;12.10;2.38;;;28.50;23.60;;;;;;5108715;28;20052;-82
2022/05/08 12:42:23;;;;;;;12.35;2.00;;;28.70;23.00;;;;;;5058796;28;20051;-81
2022/05/08 12:44:52;;;;;;;10.60;2.53;;;28.90;23.00;;;;;;5095261;28;20054;-82
2022/05/08 12:47:19;;;;;;;7.10;1.90;;;29.40;22.80;;;;;;5095646;28;20050;-82
2022/05/08 12:49:45;;;;;;;5.40;1.90;;;29.70;22.10;;;;;;5112218;28;20083;-83
2022/05/08 12:52:11;;;;;;;7.00;1.77;;;29.90;21.50;;;;;;5095806;28;20069;-82
2022/05/08 12:54:37;;;;;;;6.68;1.58;;;29.90;21.60;;;;;;5095094;28;20138;-81
2022/05/08 12:57:09;;;;;;;5.85;1.77;;;29.60;21.30;;;;;;5112599;28;20086;-82
2022/05/08 12:59:48;;;;;;;7.97;2.13;;;29.90;21.20;;;;;;5094644;28;20058;-83
2022/05/08 13:02:18;;;;;;;7.13;1.95;;;29.70;21.40;;;;;;5112500;28;20141;-83
2022/05/08 13:04:46;;;;;;;8.55;1.75;;;29.90;21.50;;;;;;5094856;28;20061;-82
2022/05/08 13:07:12;;;;;;;4.47;1.50;;;30.00;21.30;;;;;;5094622;28;20090;-83
2022/05/08 13:09:39;;;;;;;7.88;1.85;;;29.70;21.00;;;;;;5094719;28;20134;-81
2022/05/08 13:12:06;;;;;;;7.03;2.20;;;29.50;21.30;;;;;;5095252;28;20097;-82
2022/05/08 13:14:32;;;;;;;8.85;1.83;;;29.50;21.50;;;;;;5111671;28;20105;-86